New Braunfels, TX (78132)

11:45 PM CDT on May 27, 2015 (GMT -0500)
Oakwood Estates | | Change Station
CLOSE
Current Station
Personal Weather Station
Location: New Braunfels, TX
Elevation: 758 ft
Nearby Weather Stations

Elev 758 ft 29.72 °N, 98.14 °W | Updated 7 seconds ago

Clear
Clear
76.2 °F
Feels Like 76 °F
N
2.0
Wind Variable Wind from SE
Gusts 2.0 mph

Today
High -- | Low -- °F
--% Chance of Precip.
Yesterday
High -- | Low -- °F
Precip. -- in
6:34 AM 8:25 PM
Waxing Gibbous, 73% visible
Pressure 30.04 in
Visibility 10.0 miles
Clouds Mostly Cloudy 1500 ft
Mostly Cloudy 2500 ft
Heat Index 76 °F
Dew Point 73 °F
Humidity 91%
Rainfall 0.02 in
Snow Depth Not available.
UV 0 out of 12
Pollen 5.70 out of 12
Air Quality Not available.
Flu Activity Sporadic
SPECI KBAZ 280440Z AUTO 13007KT 10SM BKN015 BKN025 24/23 A3004 RMK AO2 T02440228

More Conditions Fewer Conditions

Pressure 30.04 in
Visibility 10.0 miles
Clouds Mostly Cloudy 1500 ft
Mostly Cloudy 2500 ft
Heat Index 76 °F
Dew Point 73 °F
Humidity 91%
Rainfall 0.02 in
Snow Depth Not available.
UV 0 out of 12
Pollen 5.70 out of 12
Air Quality Not available.
Flu Activity Sporadic
SPECI KBAZ 280440Z AUTO 13007KT 10SM BKN015 BKN025 24/23 A3004 RMK AO2 T02440228

More Conditions Fewer Conditions

10-Day Weather Forecast

Almanac

Astronomy

May. 27, 2015 Rise Set
Actual Time
Civil Twilight
Nautical Twilight
Astronomical Twilight
Moon
Length of Visible Light
Length of Day
Tomorrow will be .
, % of the Moon is Illuminated

Today's Extremes

State Highs State Lows

Community

WunderPhotos

Upload Photos

1,824,921 photos uploaded!

WunderBlogs® & News

Nearby

Air Quality

  Air Quality AQ Index Pollutant
Not available.

Snow Depth

Station Depth Elevation

Earthquake Activity

City Distance Mag. Time & Date
Minimum magnitude displayed is 2.5.

Coastal Water Temperatures

Place Temperature

Stations

Nearby Weather Stations

Station Location Temp. Windchill Dew Point Humidity Wind Precip. Elev Updated Type